Time;durP1;ratioP1;P1;durP2;ratioP2;P2;SDS_P1;SDS_P2;PMS_P1;PMS_P2;Temp;Humidity;BMP_temperature;BMP_pressure;BME280_temperature;BME280_humidity;BME280_pressure;Samples;Min_cycle;Max_cycle;Signal;HPM_P1;HPM_P2
2021/07/08 00:02:18;;;;;;;2.83;2.63;;;21.10;86.60;;;;;;5050908;28;20650;-49
2021/07/08 00:04:45;;;;;;;4.20;2.60;;;21.00;87.20;;;;;;5050685;28;20665;-50
2021/07/08 00:07:14;;;;;;;2.57;2.20;;;21.10;87.80;;;;;;5051137;28;21203;-49
2021/07/08 00:09:41;;;;;;;5.50;3.30;;;21.10;87.90;;;;;;5050435;28;20622;-48
2021/07/08 00:12:08;;;;;;;3.27;2.53;;;21.20;88.30;;;;;;5050708;28;21183;-49
2021/07/08 00:14:35;;;;;;;7.40;2.50;;;21.30;88.00;;;;;;5049848;28;20681;-49
2021/07/08 00:17:05;;;;;;;7.37;2.30;;;21.30;87.80;;;;;;5050158;28;20948;-50
2021/07/08 00:19:33;;;;;;;2.97;2.67;;;21.30;87.70;;;;;;5051102;28;20649;-49
2021/07/08 00:22:00;;;;;;;4.13;2.60;;;21.30;87.60;;;;;;5050062;28;20654;-50
2021/07/08 00:24:28;;;;;;;2.80;2.07;;;21.30;87.60;;;;;;5051323;28;20630;-50
2021/07/08 00:26:56;;;;;;;2.60;2.00;;;21.30;88.30;;;;;;5050162;28;21077;-50
2021/07/08 00:29:23;;;;;;;4.20;2.47;;;21.20;88.30;;;;;;5041900;28;20687;-50
2021/07/08 00:31:50;;;;;;;3.57;2.53;;;21.20;88.60;;;;;;5050515;28;20658;-50
2021/07/08 00:34:18;;;;;;;4.10;2.73;;;21.30;88.70;;;;;;5049955;28;20650;-49
2021/07/08 00:36:45;;;;;;;2.60;2.40;;;21.30;88.80;;;;;;5050337;28;20689;-50
2021/07/08 00:39:12;;;;;;;2.60;2.23;;;21.30;88.80;;;;;;5050009;28;20653;-50
2021/07/08 00:41:42;;;;;;;2.10;1.90;;;21.20;89.00;;;;;;5050311;28;20750;-49
2021/07/08 00:44:10;;;;;;;4.67;2.40;;;21.10;89.40;;;;;;5050704;28;20653;-50
2021/07/08 00:46:38;;;;;;;2.90;2.43;;;21.10;90.00;;;;;;5050689;28;20653;-50
2021/07/08 00:49:05;;;;;;;1.90;1.80;;;21.10;90.20;;;;;;5050478;28;20625;-49
2021/07/08 00:51:32;;;;;;;6.33;1.80;;;21.20;90.20;;;;;;5049824;28;20812;-48
2021/07/08 00:53:59;;;;;;;2.53;2.07;;;21.20;90.10;;;;;;5049759;28;20665;-49
2021/07/08 00:56:28;;;;;;;2.57;2.37;;;21.20;90.30;;;;;;5049414;28;21155;-49
2021/07/08 00:59:04;;;;;;;3.73;2.30;;;21.20;90.40;;;;;;5049376;28;20626;-47
2021/07/08 01:01:32;;;;;;;5.07;2.43;;;21.20;90.30;;;;;;5049760;28;20617;-47
2021/07/08 01:04:01;;;;;;;3.40;2.23;;;21.20;90.50;;;;;;5049978;28;20657;-48
2021/07/08 01:06:28;;;;;;;4.83;2.17;;;21.20;90.60;;;;;;5049263;28;20758;-50
2021/07/08 01:08:56;;;;;;;2.60;1.87;;;21.20;90.70;;;;;;5049376;28;20618;-48
2021/07/08 01:11:23;;;;;;;3.17;2.33;;;21.10;90.80;;;;;;5048963;28;20685;-49
2021/07/08 01:13:50;;;;;;;4.17;1.93;;;21.00;90.90;;;;;;5049223;28;20665;-48
2021/07/08 01:16:19;;;;;;;2.40;2.20;;;21.00;91.10;;;;;;5049259;28;21025;-49
2021/07/08 01:18:46;;;;;;;3.67;2.30;;;21.00;91.20;;;;;;5049720;28;20658;-49
2021/07/08 01:21:22;;;;;;;30.27;27.13;;;20.90;91.20;;;;;;5049142;28;20691;-48
2021/07/08 01:23:50;;;;;;;18.90;17.07;;;20.80;91.30;;;;;;5048640;28;20633;-49
2021/07/08 01:26:17;;;;;;;13.23;11.93;;;20.70;91.70;;;;;;5049068;28;20698;-47
2021/07/08 01:28:44;;;;;;;13.30;10.83;;;20.60;91.90;;;;;;5048702;28;20669;-50
2021/07/08 01:31:11;;;;;;;6.43;4.80;;;20.50;92.10;;;;;;5049040;28;20654;-50
2021/07/08 01:33:39;;;;;;;4.33;3.87;;;20.50;92.40;;;;;;5049224;28;20722;-50
2021/07/08 01:36:06;;;;;;;5.20;2.80;;;20.60;92.60;;;;;;5049064;28;20658;-50
2021/07/08 01:38:34;;;;;;;10.67;8.73;;;20.60;92.50;;;;;;5049523;28;20621;-50
2021/07/08 01:41:01;;;;;;;5.83;2.87;;;20.60;92.60;;;;;;5049063;28;21009;-50
2021/07/08 01:43:29;;;;;;;5.20;2.57;;;20.60;92.60;;;;;;5049431;28;20764;-51
2021/07/08 01:45:57;;;;;;;6.90;2.33;;;20.60;92.60;;;;;;5049265;28;21340;-50
2021/07/08 01:48:24;;;;;;;2.60;2.20;;;20.50;92.70;;;;;;5048939;28;20962;-50
2021/07/08 01:50:51;;;;;;;5.57;2.40;;;20.50;93.00;;;;;;5049018;28;20658;-49
2021/07/08 01:53:19;;;;;;;2.47;2.27;;;20.60;93.00;;;;;;5048781;28;20765;-50
2021/07/08 01:55:47;;;;;;;3.30;2.17;;;20.60;93.00;;;;;;5048824;28;20622;-50
2021/07/08 01:58:14;;;;;;;3.07;2.60;;;20.60;93.00;;;;;;5048270;28;20650;-50
2021/07/08 02:00:41;;;;;;;4.23;1.70;;;20.70;93.20;;;;;;5049336;28;20618;-50
2021/07/08 02:03:09;;;;;;;4.30;1.60;;;20.70;93.30;;;;;;5048280;28;20634;-50
2021/07/08 02:08:59;;;;;;;2.90;2.53;;;20.70;93.20;;;;;;5049022;28;20614;-50
2021/07/08 02:11:27;;;;;;;5.17;2.90;;;20.80;93.10;;;;;;5048607;28;20626;-50
2021/07/08 02:13:54;;;;;;;2.10;1.53;;;20.80;93.20;;;;;;5049138;28;20618;-49
2021/07/08 02:16:21;;;;;;;3.10;1.90;;;20.80;93.20;;;;;;5048485;28;20704;-50
2021/07/08 02:18:49;;;;;;;3.00;2.07;;;20.90;93.30;;;;;;5048972;28;20622;-49
2021/07/08 02:21:16;;;;;;;2.80;2.60;;;20.90;93.20;;;;;;5049192;28;20727;-49
2021/07/08 02:23:43;;;;;;;2.33;1.77;;;20.90;93.10;;;;;;5052549;28;20658;-50
2021/07/08 02:26:10;;;;;;;2.30;2.10;;;21.00;93.10;;;;;;5052116;28;20729;-50
2021/07/08 02:28:39;;;;;;;4.40;2.37;;;21.00;93.00;;;;;;5052917;28;20696;-50
2021/07/08 02:31:07;;;;;;;2.83;2.47;;;21.00;93.00;;;;;;5052310;28;21035;-49
2021/07/08 02:33:34;;;;;;;5.43;3.43;;;21.00;93.20;;;;;;5052111;28;20712;-50
2021/07/08 02:36:01;;;;;;;4.97;2.80;;;21.00;93.20;;;;;;5052533;28;20785;-50
2021/07/08 02:38:28;;;;;;;4.30;2.53;;;21.00;93.60;;;;;;5052509;28;20664;-49
2021/07/08 02:40:55;;;;;;;3.73;2.77;;;20.90;93.30;;;;;;5052270;28;20974;-49
2021/07/08 02:43:23;;;;;;;5.90;3.20;;;20.90;93.30;;;;;;5052215;28;20667;-50
2021/07/08 02:45:51;;;;;;;4.07;2.33;;;20.80;93.00;;;;;;5052392;28;20713;-49
2021/07/08 02:48:20;;;;;;;2.53;2.33;;;20.70;93.10;;;;;;5051509;28;20658;-49
2021/07/08 02:50:48;;;;;;;2.60;2.40;;;20.60;93.30;;;;;;5051737;28;21218;-49
2021/07/08 02:53:15;;;;;;;4.40;2.93;;;20.60;93.40;;;;;;5051801;28;20693;-49
2021/07/08 02:55:42;;;;;;;3.40;2.30;;;20.60;93.60;;;;;;5051897;28;20614;-49
2021/07/08 02:58:10;;;;;;;2.40;2.20;;;20.60;93.80;;;;;;5052164;28;20932;-49
2021/07/08 03:00:37;;;;;;;5.80;2.67;;;20.60;93.90;;;;;;5052391;28;20655;-49
2021/07/08 03:03:05;;;;;;;3.63;2.93;;;20.60;93.90;;;;;;5052067;28;20758;-49
2021/07/08 03:05:33;;;;;;;6.07;2.40;;;20.70;93.90;;;;;;5052445;28;20634;-49
2021/07/08 03:08:00;;;;;;;4.03;2.63;;;20.70;93.90;;;;;;5051886;28;20661;-49
2021/07/08 03:10:28;;;;;;;3.00;2.07;;;20.70;93.80;;;;;;5050602;28;20649;-48
2021/07/08 03:12:56;;;;;;;5.70;3.80;;;20.70;93.90;;;;;;5051979;28;20690;-50
2021/07/08 03:15:23;;;;;;;3.90;2.77;;;20.70;93.90;;;;;;5051420;28;20661;-49
2021/07/08 03:17:51;;;;;;;2.63;2.43;;;20.70;93.80;;;;;;5051328;28;20726;-49
2021/07/08 03:20:20;;;;;;;2.73;2.53;;;20.60;93.70;;;;;;5052223;28;20662;-48
2021/07/08 03:22:48;;;;;;;2.07;1.90;;;20.60;93.80;;;;;;5051609;28;20654;-48
2021/07/08 03:25:16;;;;;;;2.20;2.00;;;20.60;93.90;;;;;;5051359;28;20650;-49
2021/07/08 03:27:43;;;;;;;7.10;2.57;;;20.50;93.90;;;;;;5051669;28;20680;-50
2021/07/08 03:30:12;;;;;;;2.53;2.33;;;20.50;94.10;;;;;;5051421;28;20984;-49
2021/07/08 03:32:39;;;;;;;4.80;3.40;;;20.50;94.10;;;;;;5049852;28;20739;-49
2021/07/08 03:35:07;;;;;;;4.30;2.67;;;20.50;94.20;;;;;;5050963;28;21179;-50
2021/07/08 03:37:36;;;;;;;3.53;2.23;;;20.50;94.20;;;;;;5050336;28;21280;-50
2021/07/08 03:40:04;;;;;;;2.67;2.47;;;20.50;94.20;;;;;;5050564;28;20661;-49
2021/07/08 03:42:31;;;;;;;4.60;2.40;;;20.50;94.30;;;;;;5050786;28;20830;-49
2021/07/08 03:44:58;;;;;;;5.50;2.53;;;20.50;94.40;;;;;;5051433;28;20673;-50
2021/07/08 03:47:25;;;;;;;4.00;3.20;;;20.50;94.40;;;;;;5050414;28;20999;-49
2021/07/08 03:49:53;;;;;;;2.80;2.50;;;20.50;94.50;;;;;;5050620;28;20652;-48
2021/07/08 03:52:20;;;;;;;3.20;2.90;;;20.50;94.50;;;;;;5050713;28;21188;-48
2021/07/08 03:54:48;;;;;;;4.07;2.90;;;20.50;94.60;;;;;;5050883;28;20756;-49
2021/07/08 03:57:15;;;;;;;3.30;2.40;;;20.60;94.80;;;;;;5050756;28;20693;-49
2021/07/08 03:59:43;;;;;;;4.63;3.90;;;20.50;95.20;;;;;;5050659;28;20646;-49
2021/07/08 04:02:10;;;;;;;5.00;3.20;;;20.60;94.90;;;;;;5052725;28;20661;-48
2021/07/08 04:04:39;;;;;;;3.50;2.93;;;20.60;94.90;;;;;;5055283;28;20668;-51
2021/07/08 04:07:06;;;;;;;2.67;2.47;;;20.60;94.90;;;;;;5069341;28;20685;-48
2021/07/08 04:09:33;;;;;;;4.40;2.83;;;20.60;94.90;;;;;;5064041;28;20688;-48
2021/07/08 04:12:02;;;;;;;2.80;2.50;;;20.60;94.90;;;;;;5050423;28;20634;-49
2021/07/08 04:14:29;;;;;;;6.73;3.03;;;20.70;94.90;;;;;;5031996;28;20720;-48
2021/07/08 04:16:56;;;;;;;4.60;3.10;;;20.70;94.90;;;;;;5049871;28;20716;-48
2021/07/08 04:19:23;;;;;;;4.40;3.50;;;20.70;94.80;;;;;;5050189;28;20633;-48
2021/07/08 04:21:50;;;;;;;5.83;2.70;;;20.70;94.80;;;;;;5045517;28;20651;-48
2021/07/08 04:24:18;;;;;;;4.60;3.23;;;20.70;94.70;;;;;;5030718;28;20661;-50
2021/07/08 04:26:45;;;;;;;2.93;2.73;;;20.70;94.70;;;;;;5034618;28;21015;-48
2021/07/08 04:29:13;;;;;;;2.90;2.67;;;20.70;94.70;;;;;;5050815;28;20654;-49
2021/07/08 04:31:41;;;;;;;4.73;3.30;;;20.70;94.70;;;;;;5049607;28;21162;-48
2021/07/08 04:34:08;;;;;;;9.00;2.90;;;20.70;94.70;;;;;;5032129;28;20661;-48
2021/07/08 04:36:35;;;;;;;6.50;2.60;;;20.70;94.70;;;;;;5049911;28;20682;-48
2021/07/08 04:39:02;;;;;;;2.63;2.43;;;20.60;94.80;;;;;;5049817;28;20658;-48
2021/07/08 04:41:29;;;;;;;3.20;2.47;;;20.60;94.80;;;;;;5049467;28;20665;-48
2021/07/08 04:43:58;;;;;;;3.90;2.70;;;20.60;94.80;;;;;;5049826;28;20658;-48
2021/07/08 04:46:27;;;;;;;5.07;3.20;;;20.60;94.70;;;;;;5049263;28;20686;-48
2021/07/08 04:48:55;;;;;;;3.13;2.80;;;20.60;94.70;;;;;;5049975;28;20657;-48
2021/07/08 04:51:22;;;;;;;8.73;3.40;;;20.60;94.70;;;;;;5049459;28;20649;-48
2021/07/08 04:53:49;;;;;;;5.23;3.23;;;20.70;94.70;;;;;;5049518;28;20821;-49
2021/07/08 04:56:16;;;;;;;3.97;2.77;;;20.60;94.70;;;;;;5049622;28;21178;-50
2021/07/08 04:58:43;;;;;;;6.53;3.10;;;20.60;94.70;;;;;;5049409;28;20627;-49
2021/07/08 05:01:11;;;;;;;5.40;3.40;;;20.50;94.60;;;;;;5048811;28;21203;-50
2021/07/08 05:03:39;;;;;;;3.37;3.07;;;20.40;94.70;;;;;;5047238;28;20669;-49
2021/07/08 05:06:06;;;;;;;6.23;3.80;;;20.40;94.80;;;;;;5049129;28;20973;-50
2021/07/08 05:08:34;;;;;;;3.77;2.70;;;20.30;94.90;;;;;;5048799;28;20654;-50
2021/07/08 05:11:01;;;;;;;2.87;2.40;;;20.30;95.10;;;;;;5048572;28;20665;-49
2021/07/08 05:16:09;;;;;;;4.30;3.00;;;20.20;95.40;;;;;;5047703;28;20666;-49
2021/07/08 05:18:36;;;;;;;3.13;2.77;;;20.30;95.40;;;;;;5048855;28;20629;-50
2021/07/08 05:21:05;;;;;;;4.70;2.90;;;20.30;95.50;;;;;;5048482;28;20630;-48
2021/07/08 05:23:33;;;;;;;5.13;2.80;;;20.30;95.50;;;;;;5047378;28;20618;-49
2021/07/08 05:26:00;;;;;;;2.93;2.53;;;20.30;95.40;;;;;;5048750;28;20696;-49
2021/07/08 05:28:28;;;;;;;3.10;2.60;;;20.30;95.40;;;;;;5046613;28;21269;-49
2021/07/08 05:30:55;;;;;;;3.70;3.03;;;20.20;95.50;;;;;;5048455;28;21135;-50
2021/07/08 05:33:22;;;;;;;2.93;2.67;;;20.20;95.60;;;;;;5048340;28;20658;-49
2021/07/08 05:35:49;;;;;;;6.27;3.30;;;20.20;95.70;;;;;;5049612;28;21003;-50
2021/07/08 05:38:18;;;;;;;3.63;2.70;;;20.20;95.80;;;;;;5034610;28;20657;-49
2021/07/08 05:40:47;;;;;;;2.90;2.53;;;20.30;95.80;;;;;;5049079;28;20668;-50
2021/07/08 05:43:14;;;;;;;2.60;2.40;;;20.40;95.90;;;;;;5049358;28;20664;-50
2021/07/08 05:45:41;;;;;;;5.70;2.53;;;20.40;95.80;;;;;;5053559;28;21028;-50
2021/07/08 05:48:08;;;;;;;5.37;2.57;;;20.50;95.90;;;;;;5049312;28;20668;-50
2021/07/08 05:50:36;;;;;;;2.97;2.20;;;20.60;95.80;;;;;;5031327;28;20700;-50
2021/07/08 05:53:03;;;;;;;4.07;2.50;;;20.60;95.60;;;;;;5049321;28;20998;-51
2021/07/08 05:55:32;;;;;;;3.17;2.73;;;20.70;95.60;;;;;;5049062;28;20681;-49
2021/07/08 05:57:59;;;;;;;4.40;2.67;;;20.70;95.50;;;;;;5072470;28;20663;-49
2021/07/08 06:00:27;;;;;;;3.17;2.90;;;20.70;95.50;;;;;;5072519;28;20664;-49
2021/07/08 06:02:54;;;;;;;4.40;3.00;;;20.80;95.50;;;;;;5072793;28;20664;-49
2021/07/08 06:05:21;;;;;;;3.00;2.80;;;20.80;95.40;;;;;;5069969;28;20645;-50
2021/07/08 06:07:48;;;;;;;3.73;2.00;;;20.90;95.40;;;;;;5052559;28;20692;-50
2021/07/08 06:10:15;;;;;;;3.67;2.30;;;20.90;95.30;;;;;;5052540;28;20618;-50
2021/07/08 06:12:46;;;;;;;2.60;2.10;;;20.90;95.10;;;;;;5052674;28;20668;-49
2021/07/08 06:15:13;;;;;;;2.60;2.10;;;21.00;95.20;;;;;;5052648;28;20700;-51
2021/07/08 06:17:40;;;;;;;4.73;3.07;;;21.00;95.20;;;;;;5052315;28;20699;-49
2021/07/08 06:20:09;;;;;;;2.63;2.40;;;21.10;95.20;;;;;;5052751;28;20665;-49
2021/07/08 06:22:36;;;;;;;3.23;2.40;;;21.10;95.00;;;;;;5051412;28;21042;-50
2021/07/08 06:25:03;;;;;;;4.67;2.57;;;21.20;95.00;;;;;;5052178;28;20626;-49
2021/07/08 06:30:54;;;;;;;3.90;3.10;;;21.20;94.70;;;;;;5053045;28;20598;-50
2021/07/08 06:33:21;;;;;;;2.60;2.30;;;21.20;95.10;;;;;;5052611;28;20630;-49
2021/07/08 06:35:49;;;;;;;2.50;2.30;;;21.20;94.90;;;;;;5052417;28;20657;-49
2021/07/08 06:38:16;;;;;;;4.90;2.83;;;21.20;94.80;;;;;;5052753;28;20621;-49
2021/07/08 06:40:43;;;;;;;3.80;2.67;;;21.30;94.80;;;;;;5051878;28;20661;-50
2021/07/08 06:43:11;;;;;;;5.37;3.00;;;21.20;94.80;;;;;;5052084;28;20621;-50
2021/07/08 06:45:38;;;;;;;6.13;2.60;;;21.30;94.90;;;;;;5052055;28;20750;-50
2021/07/08 06:48:08;;;;;;;3.47;2.47;;;21.30;95.20;;;;;;5052143;28;20662;-50
2021/07/08 06:50:36;;;;;;;5.20;2.90;;;21.30;94.90;;;;;;5052586;28;20653;-51
2021/07/08 06:53:04;;;;;;;3.27;3.00;;;21.40;95.10;;;;;;5051988;28;20987;-49
2021/07/08 06:55:31;;;;;;;2.83;2.63;;;21.40;95.10;;;;;;5051608;28;20696;-50
2021/07/08 06:57:58;;;;;;;6.03;2.37;;;21.40;95.20;;;;;;5052205;28;20730;-51
2021/07/08 07:00:26;;;;;;;4.47;2.80;;;21.40;95.20;;;;;;5051835;28;20662;-50
2021/07/08 07:02:54;;;;;;;4.20;3.57;;;21.40;95.40;;;;;;5051798;28;20673;-50
2021/07/08 07:05:22;;;;;;;3.13;2.70;;;21.40;95.50;;;;;;5051459;28;20657;-50
2021/07/08 07:07:50;;;;;;;2.43;1.80;;;21.50;95.50;;;;;;5051427;28;20983;-49
2021/07/08 07:10:17;;;;;;;3.57;2.70;;;21.50;95.50;;;;;;5051660;28;20650;-51
2021/07/08 07:12:45;;;;;;;3.00;2.43;;;21.50;95.40;;;;;;5051707;28;20661;-51
2021/07/08 07:15:12;;;;;;;3.80;2.40;;;21.50;95.40;;;;;;5051166;28;20693;-51
2021/07/08 07:17:40;;;;;;;3.33;2.20;;;21.50;95.30;;;;;;5051783;28;20661;-52
2021/07/08 07:20:09;;;;;;;3.40;2.60;;;21.50;95.40;;;;;;5051460;28;20981;-51
2021/07/08 07:22:38;;;;;;;2.80;2.00;;;21.60;95.30;;;;;;5051806;28;20665;-51
2021/07/08 07:25:06;;;;;;;2.83;2.63;;;21.70;95.40;;;;;;5051483;28;21189;-51
2021/07/08 07:27:33;;;;;;;8.77;3.73;;;21.70;95.30;;;;;;5051620;28;20704;-51
2021/07/08 07:30:03;;;;;;;2.83;2.57;;;21.70;95.40;;;;;;5051205;28;20666;-50
2021/07/08 07:32:30;;;;;;;3.17;2.63;;;21.80;95.20;;;;;;5050912;28;20697;-51
2021/07/08 07:34:57;;;;;;;2.60;2.40;;;21.80;95.10;;;;;;5050087;28;20693;-51
2021/07/08 07:37:25;;;;;;;4.20;3.13;;;21.80;94.90;;;;;;5051000;28;20681;-51
2021/07/08 07:39:53;;;;;;;2.87;2.67;;;21.80;94.90;;;;;;5050859;28;20732;-51
2021/07/08 07:42:21;;;;;;;2.90;2.63;;;21.70;94.80;;;;;;5050940;28;20618;-51
2021/07/08 07:44:48;;;;;;;3.00;2.80;;;21.70;95.00;;;;;;5050818;28;20646;-50
2021/07/08 07:47:15;;;;;;;8.23;2.70;;;21.70;95.20;;;;;;5050880;28;20733;-50
2021/07/08 07:49:43;;;;;;;2.80;2.57;;;21.70;95.10;;;;;;5050610;28;20632;-49
2021/07/08 07:52:12;;;;;;;3.80;3.00;;;21.70;95.30;;;;;;5050706;28;20650;-49
2021/07/08 07:54:39;;;;;;;3.80;3.40;;;21.70;95.30;;;;;;5050391;28;20686;-49
2021/07/08 07:57:08;;;;;;;3.23;2.93;;;21.70;95.20;;;;;;5050240;28;20685;-49
2021/07/08 07:59:36;;;;;;;2.93;2.73;;;21.70;95.20;;;;;;5050659;28;20622;-49
2021/07/08 08:02:03;;;;;;;3.50;3.20;;;21.70;95.30;;;;;;5050679;28;20661;-50
2021/07/08 08:04:31;;;;;;;4.33;2.77;;;21.70;95.20;;;;;;5050488;28;20661;-49
2021/07/08 08:09:44;;;;;;;5.50;3.90;;;21.50;94.90;;;;;;5050562;28;20963;-51
2021/07/08 08:12:12;;;;;;;3.50;3.03;;;21.50;95.20;;;;;;5050479;28;20661;-50
2021/07/08 08:14:39;;;;;;;4.13;2.80;;;21.60;95.50;;;;;;5050507;28;20721;-51
2021/07/08 08:17:07;;;;;;;4.90;3.23;;;21.70;95.70;;;;;;5050301;28;21016;-51
2021/07/08 08:19:34;;;;;;;4.27;3.87;;;21.80;95.60;;;;;;5049235;28;20684;-50
2021/07/08 08:22:01;;;;;;;4.70;2.80;;;21.90;95.40;;;;;;5049747;28;20650;-51
2021/07/08 08:24:29;;;;;;;3.40;2.57;;;22.00;95.40;;;;;;5050199;28;20721;-50
2021/07/08 08:26:56;;;;;;;5.57;5.07;;;22.20;95.10;;;;;;5049609;28;20693;-50
2021/07/08 08:29:25;;;;;;;4.80;2.97;;;22.40;94.80;;;;;;5050020;28;20685;-51
2021/07/08 08:31:52;;;;;;;2.60;2.40;;;22.60;94.60;;;;;;5049835;28;20622;-50
2021/07/08 08:34:19;;;;;;;5.30;2.87;;;22.70;94.30;;;;;;5049864;28;20662;-50
2021/07/08 08:36:46;;;;;;;4.30;2.80;;;22.80;94.00;;;;;;5050021;28;20743;-51
2021/07/08 08:39:14;;;;;;;3.00;2.63;;;22.90;93.80;;;;;;5049840;28;20662;-50
2021/07/08 08:41:41;;;;;;;4.70;2.83;;;23.10;93.80;;;;;;5049228;28;20638;-51
2021/07/08 08:44:08;;;;;;;3.17;2.87;;;23.10;93.40;;;;;;5049839;28;20626;-51
2021/07/08 08:46:37;;;;;;;4.00;2.47;;;23.10;93.30;;;;;;5049335;28;20777;-51
2021/07/08 08:49:04;;;;;;;2.90;2.70;;;23.10;93.10;;;;;;5049876;28;20695;-51
2021/07/08 08:51:32;;;;;;;6.23;2.57;;;23.10;93.00;;;;;;5049778;28;20672;-51
2021/07/08 08:53:59;;;;;;;4.43;2.90;;;23.10;92.90;;;;;;5049729;28;20658;-50
2021/07/08 08:56:27;;;;;;;3.20;2.23;;;23.10;93.00;;;;;;5049306;28;20745;-52
2021/07/08 08:58:54;;;;;;;3.57;3.07;;;23.20;93.10;;;;;;5049742;28;21036;-52
2021/07/08 09:01:22;;;;;;;3.40;2.50;;;23.30;93.20;;;;;;5049535;28;20638;-51
2021/07/08 09:03:50;;;;;;;4.10;2.90;;;23.30;92.90;;;;;;5049829;28;20658;-52
2021/07/08 09:06:17;;;;;;;3.23;2.37;;;23.40;92.40;;;;;;5049659;28;20682;-50
2021/07/08 09:08:47;;;;;;;4.03;2.47;;;23.50;92.50;;;;;;5050090;28;20650;-50
2021/07/08 09:11:15;;;;;;;3.60;2.77;;;23.50;92.00;;;;;;5048788;28;20936;-50
2021/07/08 09:14:03;;;;;;;2.80;2.60;;;23.50;91.80;;;;;;5049346;28;20654;-51
2021/07/08 09:16:32;;;;;;;3.60;3.13;;;23.60;91.80;;;;;;5043958;28;20856;-51
2021/07/08 09:19:09;;;;;;;2.37;2.17;;;23.70;91.60;;;;;;5049055;28;20665;-50
2021/07/08 09:21:38;;;;;;;3.80;2.10;;;23.70;91.20;;;;;;5048853;28;20645;-51
2021/07/08 09:24:07;;;;;;;2.93;2.60;;;23.80;91.20;;;;;;5049105;28;20657;-50
2021/07/08 09:26:34;;;;;;;2.60;2.40;;;23.80;91.20;;;;;;5048563;28;20719;-50
2021/07/08 09:29:03;;;;;;;2.43;2.33;;;23.80;91.10;;;;;;5049125;28;20650;-50
2021/07/08 09:31:30;;;;;;;2.60;2.40;;;23.90;90.70;;;;;;5047840;28;20660;-50
2021/07/08 09:33:57;;;;;;;2.87;2.57;;;23.90;90.70;;;;;;5048909;28;20633;-50
2021/07/08 09:36:26;;;;;;;2.80;2.60;;;23.90;90.50;;;;;;5029260;28;21087;-50
2021/07/08 09:38:57;;;;;;;4.30;3.00;;;23.90;90.40;;;;;;5029551;28;20654;-51
2021/07/08 09:41:25;;;;;;;2.93;2.70;;;24.00;90.60;;;;;;5028578;28;21155;-50
2021/07/08 09:43:52;;;;;;;2.90;2.70;;;24.10;90.40;;;;;;5029248;28;20770;-51
2021/07/08 09:46:33;;;;;;;2.37;2.10;;;24.10;90.40;;;;;;5046380;28;21004;-51
2021/07/08 09:49:05;;;;;;;2.77;2.57;;;24.30;90.30;;;;;;5048703;28;20971;-50
2021/07/08 09:51:34;;;;;;;3.03;2.80;;;24.40;90.20;;;;;;5048396;28;20650;-51
2021/07/08 09:54:07;;;;;;;3.50;3.30;;;24.40;89.20;;;;;;5047673;28;20638;-51
2021/07/08 09:56:45;;;;;;;2.90;2.37;;;24.30;89.00;;;;;;5048868;28;20697;-51
2021/07/08 09:59:13;;;;;;;2.90;2.20;;;24.20;89.80;;;;;;5048575;28;20654;-51
2021/07/08 10:01:40;;;;;;;2.80;2.60;;;24.30;90.20;;;;;;5048613;28;20983;-51
2021/07/08 10:04:08;;;;;;;2.90;2.50;;;24.30;90.10;;;;;;5048830;28;21019;-51
2021/07/08 10:06:37;;;;;;;2.47;2.30;;;24.40;90.10;;;;;;5048531;28;20682;-51
2021/07/08 10:09:05;;;;;;;4.27;2.30;;;24.40;90.00;;;;;;5048219;28;20654;-51
2021/07/08 10:11:33;;;;;;;3.17;2.90;;;24.50;90.10;;;;;;5048676;28;20653;-50
2021/07/08 10:14:03;;;;;;;2.40;2.27;;;24.50;89.70;;;;;;5048515;28;20662;-50
2021/07/08 10:16:31;;;;;;;2.90;2.70;;;24.60;89.10;;;;;;5048853;28;21242;-50
2021/07/08 10:19:02;;;;;;;2.60;2.40;;;24.60;89.20;;;;;;5048412;28;21264;-50
2021/07/08 10:21:30;;;;;;;3.30;2.80;;;24.60;89.30;;;;;;5048314;28;20658;-51
2021/07/08 10:24:01;;;;;;;4.47;3.33;;;24.60;89.30;;;;;;5048149;28;20629;-49
2021/07/08 10:26:28;;;;;;;5.43;2.93;;;24.50;89.00;;;;;;5048405;28;20689;-51
2021/07/08 10:28:56;;;;;;;5.40;2.90;;;24.50;89.10;;;;;;5048508;28;20673;-50
2021/07/08 10:31:23;;;;;;;2.70;2.50;;;24.50;89.00;;;;;;5047984;28;20670;-52
2021/07/08 10:34:10;;;;;;;3.27;2.50;;;24.50;87.80;;;;;;5048729;28;21300;-50
2021/07/08 10:36:38;;;;;;;2.73;2.53;;;24.40;86.80;;;;;;5048306;28;20712;-51
2021/07/08 10:39:07;;;;;;;2.90;2.70;;;24.30;87.20;;;;;;5049133;28;20623;-51
2021/07/08 10:41:45;;;;;;;2.27;2.07;;;24.20;87.50;;;;;;5048272;28;20740;-51
2021/07/08 10:44:44;;;;;;;3.20;2.77;;;24.20;88.10;;;;;;5052410;28;20637;-49
2021/07/08 10:47:40;;;;;;;2.87;2.67;;;24.10;88.40;;;;;;5052028;28;21167;-50
2021/07/08 10:50:30;;;;;;;4.27;3.83;;;24.10;88.20;;;;;;5052009;28;20679;-51
2021/07/08 10:52:57;;;;;;;2.80;2.60;;;24.10;89.10;;;;;;5052182;28;20649;-51
2021/07/08 10:55:39;;;;;;;4.53;3.40;;;24.00;90.00;;;;;;5052425;28;20613;-49
2021/07/08 10:58:07;;;;;;;2.87;2.67;;;23.90;90.50;;;;;;5051656;28;21101;-50
2021/07/08 11:00:46;;;;;;;3.50;3.20;;;23.70;90.70;;;;;;5051361;28;20679;-50
2021/07/08 11:03:39;;;;;;;3.80;3.50;;;23.70;91.60;;;;;;5051908;28;20724;-51
2021/07/08 11:06:17;;;;;;;3.07;2.87;;;23.70;91.40;;;;;;5051160;28;20649;-51
2021/07/08 11:09:02;;;;;;;3.40;3.17;;;23.70;91.10;;;;;;5051013;28;20633;-49
2021/07/08 11:12:12;;;;;;;3.07;2.77;;;23.70;91.10;;;;;;5051146;28;20618;-48
2021/07/08 11:14:41;;;;;;;4.03;3.63;;;23.70;90.90;;;;;;5035530;28;20703;-50
2021/07/08 11:17:18;;;;;;;3.47;3.17;;;23.70;91.00;;;;;;5050678;28;20801;-51
2021/07/08 11:19:49;;;;;;;4.13;3.47;;;23.70;90.90;;;;;;5051172;28;21178;-50
2021/07/08 11:22:34;;;;;;;3.20;2.90;;;23.70;90.80;;;;;;5051174;28;21071;-49
2021/07/08 11:25:02;;;;;;;3.20;3.00;;;23.70;90.40;;;;;;5051019;28;21038;-50
2021/07/08 11:27:35;;;;;;;3.80;3.17;;;23.60;90.40;;;;;;5051259;28;20739;-50
2021/07/08 11:30:24;;;;;;;3.17;2.97;;;23.70;90.60;;;;;;5051225;28;20618;-50
2021/07/08 11:32:53;;;;;;;2.90;2.70;;;23.70;90.70;;;;;;5051524;28;20703;-49
2021/07/08 11:35:23;;;;;;;3.10;2.90;;;23.70;90.80;;;;;;5041522;28;20864;-48
2021/07/08 11:37:53;;;;;;;4.00;2.87;;;23.80;90.90;;;;;;5030998;28;20702;-48
2021/07/08 11:40:20;;;;;;;4.77;3.70;;;23.90;90.70;;;;;;5030967;28;20671;-48
2021/07/08 11:42:48;;;;;;;5.50;5.10;;;23.90;90.70;;;;;;5031158;28;20675;-49
2021/07/08 11:45:18;;;;;;;3.37;3.17;;;24.00;90.70;;;;;;5039237;28;21103;-49
2021/07/08 11:47:47;;;;;;;5.50;3.50;;;23.90;90.80;;;;;;5050853;28;21070;-48
2021/07/08 11:50:18;;;;;;;8.50;3.90;;;24.00;91.40;;;;;;5050940;28;20658;-49
2021/07/08 11:52:46;;;;;;;3.40;3.10;;;24.00;91.60;;;;;;5051140;28;20736;-48
2021/07/08 11:55:13;;;;;;;3.77;3.13;;;24.10;91.60;;;;;;5050046;28;20650;-50
2021/07/08 11:57:53;;;;;;;3.30;3.10;;;24.10;91.30;;;;;;5050563;28;21312;-49
2021/07/08 12:00:29;;;;;;;2.93;2.73;;;24.20;91.00;;;;;;5050696;28;20630;-50
2021/07/08 12:02:57;;;;;;;3.90;3.60;;;24.30;90.60;;;;;;5050480;28;21032;-50
2021/07/08 12:05:25;;;;;;;4.53;2.90;;;24.30;90.50;;;;;;5050456;28;20657;-49
2021/07/08 12:07:55;;;;;;;2.63;2.43;;;24.30;90.30;;;;;;5050508;28;20642;-50
2021/07/08 12:10:24;;;;;;;3.13;2.93;;;24.40;90.30;;;;;;5050151;28;20664;-50
2021/07/08 12:12:53;;;;;;;3.37;3.07;;;24.40;90.50;;;;;;5050670;28;20637;-50
2021/07/08 12:15:21;;;;;;;4.23;2.80;;;24.30;90.50;;;;;;5050493;28;20666;-50
2021/07/08 12:17:54;;;;;;;4.00;3.20;;;24.40;90.50;;;;;;5050703;28;21110;-49
2021/07/08 12:20:22;;;;;;;3.60;3.40;;;24.40;90.80;;;;;;5050562;28;20664;-49
2021/07/08 12:23:00;;;;;;;3.03;2.83;;;24.40;90.80;;;;;;5050439;28;20633;-48
2021/07/08 12:25:27;;;;;;;2.73;2.53;;;24.50;90.60;;;;;;5050388;28;20654;-50
2021/07/08 12:27:56;;;;;;;3.07;2.87;;;24.50;90.50;;;;;;5050025;28;20684;-50
2021/07/08 12:30:24;;;;;;;3.63;3.20;;;24.60;90.60;;;;;;5050690;28;20649;-50
2021/07/08 12:33:08;;;;;;;2.80;2.60;;;24.60;90.60;;;;;;5050373;28;20738;-50
2021/07/08 12:35:46;;;;;;;3.30;3.00;;;24.60;90.30;;;;;;5048429;28;20638;-50
2021/07/08 12:38:14;;;;;;;6.23;2.63;;;24.60;90.30;;;;;;5050382;28;20693;-51
2021/07/08 12:40:42;;;;;;;2.67;2.47;;;24.50;90.30;;;;;;5050699;28;20686;-49
2021/07/08 12:43:11;;;;;;;3.30;2.60;;;24.50;90.50;;;;;;5050797;28;20724;-50
2021/07/08 12:45:39;;;;;;;2.77;2.57;;;24.40;90.10;;;;;;5050529;28;20649;-51
2021/07/08 12:48:10;;;;;;;2.77;2.53;;;24.30;90.10;;;;;;5050218;28;20665;-50
2021/07/08 12:50:39;;;;;;;2.73;2.53;;;24.10;90.10;;;;;;5050451;28;20761;-52
2021/07/08 12:53:07;;;;;;;2.30;2.10;;;24.00;90.00;;;;;;5050169;28;20735;-49
2021/07/08 12:55:42;;;;;;;2.37;2.17;;;23.90;89.40;;;;;;5049966;28;20749;-50
2021/07/08 12:58:13;;;;;;;2.57;2.37;;;23.90;90.00;;;;;;5049180;28;20685;-50
2021/07/08 13:00:40;;;;;;;3.20;3.00;;;23.80;90.50;;;;;;5049689;28;20791;-50
2021/07/08 13:03:16;;;;;;;3.00;2.70;;;23.70;90.60;;;;;;5049666;28;20638;-51
2021/07/08 13:05:45;;;;;;;2.33;2.13;;;23.70;91.00;;;;;;5049248;28;20697;-49
2021/07/08 13:08:14;;;;;;;3.97;2.00;;;23.60;90.70;;;;;;5049837;28;20651;-50